sensor_id;sensor_type;location;lat;lon;timestamp;P1;durP1;ratioP1;P2;durP2;ratioP2
46675;SDS011;32412;51.478;5.694;2024-03-29T00:00:46;1.95;;;0.50;;
46675;SDS011;32412;51.478;5.694;2024-03-29T00:03:11;6.22;;;0.90;;
46675;SDS011;32412;51.478;5.694;2024-03-29T00:05:37;5.53;;;1.08;;
46675;SDS011;32412;51.478;5.694;2024-03-29T00:08:03;3.22;;;0.73;;
46675;SDS011;32412;51.478;5.694;2024-03-29T00:10:29;4.32;;;0.82;;
46675;SDS011;32412;51.478;5.694;2024-03-29T00:12:54;4.82;;;0.80;;
46675;SDS011;32412;51.478;5.694;2024-03-29T00:15:20;5.50;;;0.70;;
46675;SDS011;32412;51.478;5.694;2024-03-29T00:17:46;1.92;;;0.80;;
46675;SDS011;32412;51.478;5.694;2024-03-29T00:20:11;4.70;;;0.77;;
46675;SDS011;32412;51.478;5.694;2024-03-29T00:22:37;1.45;;;0.65;;
46675;SDS011;32412;51.478;5.694;2024-03-29T00:25:03;7.28;;;0.93;;
46675;SDS011;32412;51.478;5.694;2024-03-29T00:27:29;4.07;;;1.00;;
46675;SDS011;32412;51.478;5.694;2024-03-29T00:29:55;4.93;;;1.02;;
46675;SDS011;32412;51.478;5.694;2024-03-29T00:32:21;3.92;;;0.68;;
46675;SDS011;32412;51.478;5.694;2024-03-29T00:34:50;4.10;;;0.55;;
46675;SDS011;32412;51.478;5.694;2024-03-29T00:37:17;3.13;;;0.50;;
46675;SDS011;32412;51.478;5.694;2024-03-29T00:39:43;4.53;;;0.80;;
46675;SDS011;32412;51.478;5.694;2024-03-29T00:42:09;2.35;;;0.75;;
46675;SDS011;32412;51.478;5.694;2024-03-29T00:44:37;4.32;;;0.68;;
46675;SDS011;32412;51.478;5.694;2024-03-29T00:47:04;3.40;;;0.75;;
46675;SDS011;32412;51.478;5.694;2024-03-29T00:49:30;2.38;;;0.63;;
46675;SDS011;32412;51.478;5.694;2024-03-29T00:51:55;2.28;;;0.65;;
46675;SDS011;32412;51.478;5.694;2024-03-29T00:54:21;2.58;;;0.50;;
46675;SDS011;32412;51.478;5.694;2024-03-29T00:56:49;4.35;;;0.70;;
46675;SDS011;32412;51.478;5.694;2024-03-29T00:59:15;3.50;;;0.95;;
46675;SDS011;32412;51.478;5.694;2024-03-29T01:01:40;3.13;;;0.85;;
46675;SDS011;32412;51.478;5.694;2024-03-29T01:04:06;2.85;;;0.60;;
46675;SDS011;32412;51.478;5.694;2024-03-29T01:06:32;3.85;;;0.50;;
46675;SDS011;32412;51.478;5.694;2024-03-29T01:08:57;2.50;;;0.50;;
46675;SDS011;32412;51.478;5.694;2024-03-29T01:11:23;2.92;;;0.60;;
46675;SDS011;32412;51.478;5.694;2024-03-29T01:13:49;3.72;;;0.60;;
46675;SDS011;32412;51.478;5.694;2024-03-29T01:16:14;2.05;;;0.50;;
46675;SDS011;32412;51.478;5.694;2024-03-29T01:18:40;3.40;;;0.80;;
46675;SDS011;32412;51.478;5.694;2024-03-29T01:21:08;4.90;;;0.80;;
46675;SDS011;32412;51.478;5.694;2024-03-29T01:23:34;2.03;;;0.45;;
46675;SDS011;32412;51.478;5.694;2024-03-29T01:26:00;2.70;;;0.82;;
46675;SDS011;32412;51.478;5.694;2024-03-29T01:28:26;2.05;;;0.70;;
46675;SDS011;32412;51.478;5.694;2024-03-29T01:30:52;1.75;;;0.30;;
46675;SDS011;32412;51.478;5.694;2024-03-29T01:33:18;0.85;;;0.68;;
46675;SDS011;32412;51.478;5.694;2024-03-29T01:35:44;2.25;;;0.40;;
46675;SDS011;32412;51.478;5.694;2024-03-29T01:38:09;2.58;;;0.57;;
46675;SDS011;32412;51.478;5.694;2024-03-29T01:40:35;2.30;;;0.52;;
46675;SDS011;32412;51.478;5.694;2024-03-29T01:43:01;3.13;;;0.50;;
46675;SDS011;32412;51.478;5.694;2024-03-29T01:45:26;5.30;;;0.63;;
46675;SDS011;32412;51.478;5.694;2024-03-29T01:47:53;4.97;;;0.80;;
46675;SDS011;32412;51.478;5.694;2024-03-29T01:50:19;4.78;;;0.80;;
46675;SDS011;32412;51.478;5.694;2024-03-29T01:52:45;6.25;;;0.73;;
46675;SDS011;32412;51.478;5.694;2024-03-29T01:55:11;0.65;;;0.32;;
46675;SDS011;32412;51.478;5.694;2024-03-29T01:57:37;4.25;;;0.82;;
46675;SDS011;32412;51.478;5.694;2024-03-29T02:00:03;6.22;;;0.40;;
46675;SDS011;32412;51.478;5.694;2024-03-29T02:02:31;2.95;;;0.70;;
46675;SDS011;32412;51.478;5.694;2024-03-29T02:04:57;6.22;;;1.02;;
46675;SDS011;32412;51.478;5.694;2024-03-29T02:07:24;1.33;;;0.50;;
46675;SDS011;32412;51.478;5.694;2024-03-29T02:09:50;2.50;;;0.75;;
46675;SDS011;32412;51.478;5.694;2024-03-29T02:12:16;3.33;;;0.85;;
46675;SDS011;32412;51.478;5.694;2024-03-29T02:14:41;3.10;;;0.80;;
46675;SDS011;32412;51.478;5.694;2024-03-29T02:17:07;3.53;;;0.85;;
46675;SDS011;32412;51.478;5.694;2024-03-29T02:19:34;4.63;;;0.95;;
46675;SDS011;32412;51.478;5.694;2024-03-29T02:21:59;4.47;;;0.80;;
46675;SDS011;32412;51.478;5.694;2024-03-29T02:24:26;4.38;;;1.30;;
46675;SDS011;32412;51.478;5.694;2024-03-29T02:26:53;4.28;;;0.80;;
46675;SDS011;32412;51.478;5.694;2024-03-29T02:29:21;3.95;;;1.00;;
46675;SDS011;32412;51.478;5.694;2024-03-29T02:31:47;6.45;;;0.90;;
46675;SDS011;32412;51.478;5.694;2024-03-29T02:34:12;1.15;;;0.70;;
46675;SDS011;32412;51.478;5.694;2024-03-29T02:36:38;1.15;;;0.52;;
46675;SDS011;32412;51.478;5.694;2024-03-29T02:39:04;1.85;;;1.02;;
46675;SDS011;32412;51.478;5.694;2024-03-29T02:41:30;5.85;;;0.60;;
46675;SDS011;32412;51.478;5.694;2024-03-29T02:43:56;2.00;;;0.50;;
46675;SDS011;32412;51.478;5.694;2024-03-29T02:46:22;1.80;;;0.60;;
46675;SDS011;32412;51.478;5.694;2024-03-29T02:48:48;0.93;;;0.40;;
46675;SDS011;32412;51.478;5.694;2024-03-29T02:51:14;3.50;;;0.70;;
46675;SDS011;32412;51.478;5.694;2024-03-29T02:53:39;4.43;;;0.63;;
46675;SDS011;32412;51.478;5.694;2024-03-29T02:56:05;1.60;;;0.50;;
46675;SDS011;32412;51.478;5.694;2024-03-29T02:58:32;2.10;;;0.63;;
46675;SDS011;32412;51.478;5.694;2024-03-29T03:01:05;4.93;;;0.65;;
46675;SDS011;32412;51.478;5.694;2024-03-29T03:03:34;3.75;;;0.60;;
46675;SDS011;32412;51.478;5.694;2024-03-29T03:06:00;1.65;;;0.60;;
46675;SDS011;32412;51.478;5.694;2024-03-29T03:08:27;1.60;;;0.38;;
46675;SDS011;32412;51.478;5.694;2024-03-29T03:11:12;2.47;;;0.50;;
46675;SDS011;32412;51.478;5.694;2024-03-29T03:13:38;0.95;;;0.50;;
46675;SDS011;32412;51.478;5.694;2024-03-29T03:16:04;1.77;;;0.60;;
46675;SDS011;32412;51.478;5.694;2024-03-29T03:18:30;3.20;;;0.60;;
46675;SDS011;32412;51.478;5.694;2024-03-29T03:20:56;1.15;;;0.52;;
46675;SDS011;32412;51.478;5.694;2024-03-29T03:23:25;3.13;;;0.70;;
46675;SDS011;32412;51.478;5.694;2024-03-29T03:25:57;3.45;;;1.02;;
46675;SDS011;32412;51.478;5.694;2024-03-29T03:28:24;3.03;;;0.77;;
46675;SDS011;32412;51.478;5.694;2024-03-29T03:30:50;4.15;;;0.68;;
46675;SDS011;32412;51.478;5.694;2024-03-29T03:33:15;1.67;;;0.50;;
46675;SDS011;32412;51.478;5.694;2024-03-29T03:35:41;3.75;;;0.70;;
46675;SDS011;32412;51.478;5.694;2024-03-29T03:38:07;1.85;;;0.50;;
46675;SDS011;32412;51.478;5.694;2024-03-29T03:40:36;3.13;;;0.63;;
46675;SDS011;32412;51.478;5.694;2024-03-29T03:43:03;2.33;;;0.47;;
46675;SDS011;32412;51.478;5.694;2024-03-29T03:45:36;5.35;;;0.50;;
46675;SDS011;32412;51.478;5.694;2024-03-29T03:48:02;4.82;;;0.60;;
46675;SDS011;32412;51.478;5.694;2024-03-29T03:50:29;2.72;;;0.57;;
46675;SDS011;32412;51.478;5.694;2024-03-29T03:52:55;1.38;;;0.47;;
46675;SDS011;32412;51.478;5.694;2024-03-29T03:55:21;2.10;;;0.60;;
46675;SDS011;32412;51.478;5.694;2024-03-29T03:57:47;6.93;;;0.55;;
46675;SDS011;32412;51.478;5.694;2024-03-29T04:00:13;2.72;;;0.50;;
46675;SDS011;32412;51.478;5.694;2024-03-29T04:02:39;1.95;;;0.40;;
46675;SDS011;32412;51.478;5.694;2024-03-29T04:05:04;4.15;;;0.75;;
46675;SDS011;32412;51.478;5.694;2024-03-29T04:07:31;5.25;;;0.60;;
46675;SDS011;32412;51.478;5.694;2024-03-29T04:09:57;0.82;;;0.40;;
46675;SDS011;32412;51.478;5.694;2024-03-29T04:12:22;1.45;;;0.50;;
46675;SDS011;32412;51.478;5.694;2024-03-29T04:14:48;2.80;;;0.90;;
46675;SDS011;32412;51.478;5.694;2024-03-29T04:17:14;1.95;;;0.70;;
46675;SDS011;32412;51.478;5.694;2024-03-29T04:19:39;3.40;;;0.68;;
46675;SDS011;32412;51.478;5.694;2024-03-29T04:22:05;2.85;;;0.77;;
46675;SDS011;32412;51.478;5.694;2024-03-29T04:24:30;0.80;;;0.40;;
46675;SDS011;32412;51.478;5.694;2024-03-29T04:26:56;2.63;;;0.60;;
46675;SDS011;32412;51.478;5.694;2024-03-29T04:29:22;2.75;;;0.70;;
46675;SDS011;32412;51.478;5.694;2024-03-29T04:31:48;2.33;;;0.70;;
46675;SDS011;32412;51.478;5.694;2024-03-29T04:34:14;2.50;;;0.68;;
46675;SDS011;32412;51.478;5.694;2024-03-29T04:36:39;5.13;;;0.68;;
46675;SDS011;32412;51.478;5.694;2024-03-29T04:39:05;1.30;;;0.55;;
46675;SDS011;32412;51.478;5.694;2024-03-29T04:41:31;1.33;;;0.60;;
46675;SDS011;32412;51.478;5.694;2024-03-29T04:44:02;1.80;;;0.90;;
46675;SDS011;32412;51.478;5.694;2024-03-29T04:46:29;4.63;;;0.82;;
46675;SDS011;32412;51.478;5.694;2024-03-29T04:48:55;2.10;;;0.52;;
46675;SDS011;32412;51.478;5.694;2024-03-29T04:51:22;3.22;;;0.88;;
46675;SDS011;32412;51.478;5.694;2024-03-29T04:53:48;2.15;;;0.68;;
46675;SDS011;32412;51.478;5.694;2024-03-29T04:56:14;3.78;;;0.60;;
46675;SDS011;32412;51.478;5.694;2024-03-29T04:58:39;0.70;;;0.70;;
46675;SDS011;32412;51.478;5.694;2024-03-29T05:01:05;1.38;;;0.90;;
46675;SDS011;32412;51.478;5.694;2024-03-29T05:03:32;5.75;;;0.75;;
46675;SDS011;32412;51.478;5.694;2024-03-29T05:05:57;2.58;;;0.90;;
46675;SDS011;32412;51.478;5.694;2024-03-29T05:08:23;0.70;;;0.50;;
46675;SDS011;32412;51.478;5.694;2024-03-29T05:10:50;1.98;;;0.70;;
46675;SDS011;32412;51.478;5.694;2024-03-29T05:13:16;3.08;;;0.60;;
46675;SDS011;32412;51.478;5.694;2024-03-29T05:15:44;1.00;;;0.60;;
46675;SDS011;32412;51.478;5.694;2024-03-29T05:18:10;3.60;;;0.50;;
46675;SDS011;32412;51.478;5.694;2024-03-29T05:20:36;4.40;;;0.60;;
46675;SDS011;32412;51.478;5.694;2024-03-29T05:23:02;5.13;;;0.70;;
46675;SDS011;32412;51.478;5.694;2024-03-29T05:25:27;3.38;;;0.90;;
46675;SDS011;32412;51.478;5.694;2024-03-29T05:27:53;2.10;;;0.65;;
46675;SDS011;32412;51.478;5.694;2024-03-29T05:30:19;4.82;;;1.10;;
46675;SDS011;32412;51.478;5.694;2024-03-29T05:32:45;2.25;;;0.75;;
46675;SDS011;32412;51.478;5.694;2024-03-29T05:35:10;3.08;;;0.85;;
46675;SDS011;32412;51.478;5.694;2024-03-29T05:37:36;2.38;;;0.70;;
46675;SDS011;32412;51.478;5.694;2024-03-29T05:40:02;5.30;;;0.80;;
46675;SDS011;32412;51.478;5.694;2024-03-29T05:42:32;0.82;;;0.50;;
46675;SDS011;32412;51.478;5.694;2024-03-29T05:44:59;2.03;;;0.57;;
46675;SDS011;32412;51.478;5.694;2024-03-29T05:47:25;1.40;;;0.60;;
46675;SDS011;32412;51.478;5.694;2024-03-29T05:49:50;3.75;;;0.70;;
46675;SDS011;32412;51.478;5.694;2024-03-29T05:52:16;2.78;;;0.68;;
46675;SDS011;32412;51.478;5.694;2024-03-29T05:54:42;4.70;;;0.90;;
46675;SDS011;32412;51.478;5.694;2024-03-29T05:57:09;4.25;;;0.90;;
46675;SDS011;32412;51.478;5.694;2024-03-29T05:59:35;2.50;;;0.93;;
46675;SDS011;32412;51.478;5.694;2024-03-29T06:02:01;4.47;;;0.77;;
46675;SDS011;32412;51.478;5.694;2024-03-29T06:04:27;4.63;;;0.80;;
46675;SDS011;32412;51.478;5.694;2024-03-29T06:06:59;5.45;;;0.90;;
46675;SDS011;32412;51.478;5.694;2024-03-29T06:09:25;3.78;;;0.80;;
46675;SDS011;32412;51.478;5.694;2024-03-29T06:11:51;1.42;;;0.77;;
46675;SDS011;32412;51.478;5.694;2024-03-29T06:14:17;4.75;;;0.80;;
46675;SDS011;32412;51.478;5.694;2024-03-29T06:17:01;4.90;;;0.95;;
46675;SDS011;32412;51.478;5.694;2024-03-29T06:19:44;4.10;;;1.05;;
46675;SDS011;32412;51.478;5.694;2024-03-29T06:22:10;3.50;;;1.08;;
46675;SDS011;32412;51.478;5.694;2024-03-29T06:24:36;1.70;;;1.23;;
46675;SDS011;32412;51.478;5.694;2024-03-29T06:27:03;4.60;;;0.95;;
46675;SDS011;32412;51.478;5.694;2024-03-29T06:29:29;1.70;;;0.93;;
46675;SDS011;32412;51.478;5.694;2024-03-29T06:31:55;4.32;;;1.02;;
46675;SDS011;32412;51.478;5.694;2024-03-29T06:34:20;2.90;;;1.10;;
46675;SDS011;32412;51.478;5.694;2024-03-29T06:36:46;3.30;;;1.02;;
46675;SDS011;32412;51.478;5.694;2024-03-29T06:39:11;3.65;;;1.77;;
46675;SDS011;32412;51.478;5.694;2024-03-29T06:41:37;2.55;;;1.38;;
46675;SDS011;32412;51.478;5.694;2024-03-29T06:44:03;2.75;;;0.98;;
46675;SDS011;32412;51.478;5.694;2024-03-29T06:46:28;4.40;;;1.30;;
46675;SDS011;32412;51.478;5.694;2024-03-29T06:48:54;2.42;;;0.93;;
46675;SDS011;32412;51.478;5.694;2024-03-29T06:51:20;2.63;;;1.00;;
46675;SDS011;32412;51.478;5.694;2024-03-29T06:53:45;5.43;;;1.10;;
46675;SDS011;32412;51.478;5.694;2024-03-29T06:56:11;4.22;;;1.00;;
46675;SDS011;32412;51.478;5.694;2024-03-29T06:58:37;2.42;;;1.20;;
46675;SDS011;32412;51.478;5.694;2024-03-29T07:01:02;1.27;;;1.17;;
46675;SDS011;32412;51.478;5.694;2024-03-29T07:03:28;2.85;;;1.20;;
46675;SDS011;32412;51.478;5.694;2024-03-29T07:05:53;2.90;;;1.23;;
46675;SDS011;32412;51.478;5.694;2024-03-29T07:08:19;1.98;;;1.50;;
46675;SDS011;32412;51.478;5.694;2024-03-29T07:10:45;3.92;;;1.52;;
46675;SDS011;32412;51.478;5.694;2024-03-29T07:13:10;4.55;;;2.00;;
46675;SDS011;32412;51.478;5.694;2024-03-29T07:15:36;3.97;;;1.30;;
46675;SDS011;32412;51.478;5.694;2024-03-29T07:18:02;3.00;;;1.67;;
46675;SDS011;32412;51.478;5.694;2024-03-29T07:20:30;3.63;;;1.50;;
46675;SDS011;32412;51.478;5.694;2024-03-29T07:22:56;5.13;;;1.60;;
46675;SDS011;32412;51.478;5.694;2024-03-29T07:25:22;3.55;;;1.45;;
46675;SDS011;32412;51.478;5.694;2024-03-29T07:27:48;2.25;;;1.40;;
46675;SDS011;32412;51.478;5.694;2024-03-29T07:30:15;4.78;;;1.70;;
46675;SDS011;32412;51.478;5.694;2024-03-29T07:32:41;4.60;;;1.10;;
46675;SDS011;32412;51.478;5.694;2024-03-29T07:35:07;3.67;;;1.48;;
46675;SDS011;32412;51.478;5.694;2024-03-29T07:37:32;2.72;;;1.30;;
46675;SDS011;32412;51.478;5.694;2024-03-29T07:39:58;2.58;;;1.20;;
46675;SDS011;32412;51.478;5.694;2024-03-29T07:42:23;2.78;;;0.95;;
46675;SDS011;32412;51.478;5.694;2024-03-29T07:44:49;2.05;;;1.00;;
46675;SDS011;32412;51.478;5.694;2024-03-29T07:47:15;3.20;;;1.30;;
46675;SDS011;32412;51.478;5.694;2024-03-29T07:49:40;1.35;;;1.08;;
46675;SDS011;32412;51.478;5.694;2024-03-29T07:52:06;1.05;;;0.90;;
46675;SDS011;32412;51.478;5.694;2024-03-29T07:54:33;2.67;;;1.13;;
46675;SDS011;32412;51.478;5.694;2024-03-29T07:56:59;1.45;;;0.70;;
46675;SDS011;32412;51.478;5.694;2024-03-29T07:59:26;3.92;;;1.27;;
46675;SDS011;32412;51.478;5.694;2024-03-29T08:01:53;2.25;;;1.10;;
46675;SDS011;32412;51.478;5.694;2024-03-29T08:04:19;3.42;;;1.40;;
46675;SDS011;32412;51.478;5.694;2024-03-29T08:06:45;3.08;;;1.17;;
46675;SDS011;32412;51.478;5.694;2024-03-29T08:09:11;3.20;;;1.05;;
46675;SDS011;32412;51.478;5.694;2024-03-29T08:11:39;1.15;;;1.02;;
46675;SDS011;32412;51.478;5.694;2024-03-29T08:14:04;4.32;;;1.30;;
46675;SDS011;32412;51.478;5.694;2024-03-29T08:16:31;2.83;;;1.00;;
46675;SDS011;32412;51.478;5.694;2024-03-29T08:18:56;1.25;;;1.10;;
46675;SDS011;32412;51.478;5.694;2024-03-29T08:21:22;4.18;;;1.17;;
46675;SDS011;32412;51.478;5.694;2024-03-29T08:23:48;3.63;;;1.27;;
46675;SDS011;32412;51.478;5.694;2024-03-29T08:26:15;10.05;;;1.73;;
46675;SDS011;32412;51.478;5.694;2024-03-29T08:28:41;2.85;;;1.35;;
46675;SDS011;32412;51.478;5.694;2024-03-29T08:31:11;4.53;;;1.77;;
46675;SDS011;32412;51.478;5.694;2024-03-29T08:33:37;4.28;;;1.40;;
46675;SDS011;32412;51.478;5.694;2024-03-29T08:36:03;2.13;;;1.75;;
46675;SDS011;32412;51.478;5.694;2024-03-29T08:38:30;2.88;;;1.50;;
46675;SDS011;32412;51.478;5.694;2024-03-29T08:40:56;4.07;;;1.80;;
46675;SDS011;32412;51.478;5.694;2024-03-29T08:43:22;2.72;;;1.73;;
46675;SDS011;32412;51.478;5.694;2024-03-29T08:45:47;3.17;;;1.73;;
46675;SDS011;32412;51.478;5.694;2024-03-29T08:48:13;3.00;;;1.88;;
46675;SDS011;32412;51.478;5.694;2024-03-29T08:50:39;2.85;;;1.70;;
46675;SDS011;32412;51.478;5.694;2024-03-29T08:53:05;4.82;;;2.60;;
46675;SDS011;32412;51.478;5.694;2024-03-29T08:55:32;1.88;;;1.58;;
46675;SDS011;32412;51.478;5.694;2024-03-29T08:57:58;3.10;;;1.58;;
46675;SDS011;32412;51.478;5.694;2024-03-29T09:00:28;3.22;;;1.70;;
46675;SDS011;32412;51.478;5.694;2024-03-29T09:02:54;3.83;;;1.58;;
46675;SDS011;32412;51.478;5.694;2024-03-29T09:05:21;3.35;;;1.60;;
46675;SDS011;32412;51.478;5.694;2024-03-29T09:07:47;3.22;;;1.80;;
46675;SDS011;32412;51.478;5.694;2024-03-29T09:10:13;3.92;;;1.55;;
46675;SDS011;32412;51.478;5.694;2024-03-29T09:12:40;1.40;;;1.25;;
46675;SDS011;32412;51.478;5.694;2024-03-29T09:15:05;3.05;;;1.35;;
46675;SDS011;32412;51.478;5.694;2024-03-29T09:17:38;3.58;;;1.50;;
46675;SDS011;32412;51.478;5.694;2024-03-29T09:20:05;4.07;;;1.30;;
46675;SDS011;32412;51.478;5.694;2024-03-29T09:22:31;1.60;;;1.35;;
46675;SDS011;32412;51.478;5.694;2024-03-29T09:24:56;3.33;;;1.63;;
46675;SDS011;32412;51.478;5.694;2024-03-29T09:27:22;7.35;;;1.20;;
46675;SDS011;32412;51.478;5.694;2024-03-29T09:29:48;2.78;;;1.13;;
46675;SDS011;32412;51.478;5.694;2024-03-29T09:32:16;2.38;;;1.20;;
46675;SDS011;32412;51.478;5.694;2024-03-29T09:34:42;2.03;;;1.20;;
46675;SDS011;32412;51.478;5.694;2024-03-29T09:37:09;1.75;;;1.15;;
46675;SDS011;32412;51.478;5.694;2024-03-29T09:39:35;7.68;;;1.75;;
46675;SDS011;32412;51.478;5.694;2024-03-29T09:42:01;1.20;;;1.10;;
46675;SDS011;32412;51.478;5.694;2024-03-29T09:44:30;2.65;;;1.60;;
46675;SDS011;32412;51.478;5.694;2024-03-29T09:46:59;1.83;;;1.13;;
46675;SDS011;32412;51.478;5.694;2024-03-29T09:49:28;2.47;;;1.30;;
46675;SDS011;32412;51.478;5.694;2024-03-29T09:52:00;2.97;;;1.10;;
46675;SDS011;32412;51.478;5.694;2024-03-29T09:54:27;1.50;;;0.90;;
46675;SDS011;32412;51.478;5.694;2024-03-29T09:56:55;6.85;;;1.30;;
46675;SDS011;32412;51.478;5.694;2024-03-29T09:59:22;1.75;;;1.00;;
46675;SDS011;32412;51.478;5.694;2024-03-29T10:01:48;4.80;;;1.10;;
46675;SDS011;32412;51.478;5.694;2024-03-29T10:04:16;4.57;;;1.00;;
46675;SDS011;32412;51.478;5.694;2024-03-29T10:06:44;1.88;;;0.90;;
46675;SDS011;32412;51.478;5.694;2024-03-29T10:09:14;1.95;;;0.90;;
46675;SDS011;32412;51.478;5.694;2024-03-29T10:11:42;1.38;;;0.80;;
46675;SDS011;32412;51.478;5.694;2024-03-29T10:14:08;3.85;;;1.13;;
46675;SDS011;32412;51.478;5.694;2024-03-29T10:16:33;1.35;;;0.82;;
46675;SDS011;32412;51.478;5.694;2024-03-29T10:18:59;2.90;;;1.33;;
46675;SDS011;32412;51.478;5.694;2024-03-29T10:21:25;3.22;;;0.98;;
46675;SDS011;32412;51.478;5.694;2024-03-29T10:23:53;2.63;;;0.80;;
46675;SDS011;32412;51.478;5.694;2024-03-29T10:26:19;2.05;;;0.98;;
46675;SDS011;32412;51.478;5.694;2024-03-29T10:28:46;2.72;;;0.80;;
46675;SDS011;32412;51.478;5.694;2024-03-29T10:31:12;3.13;;;1.48;;
46675;SDS011;32412;51.478;5.694;2024-03-29T10:33:39;1.10;;;0.60;;
46675;SDS011;32412;51.478;5.694;2024-03-29T10:36:06;0.93;;;0.70;;
46675;SDS011;32412;51.478;5.694;2024-03-29T10:38:34;2.30;;;1.00;;
46675;SDS011;32412;51.478;5.694;2024-03-29T10:41:01;1.90;;;0.80;;
46675;SDS011;32412;51.478;5.694;2024-03-29T10:43:28;1.73;;;0.70;;
46675;SDS011;32412;51.478;5.694;2024-03-29T10:45:55;1.13;;;0.73;;
46675;SDS011;32412;51.478;5.694;2024-03-29T10:48:24;0.98;;;0.50;;
46675;SDS011;32412;51.478;5.694;2024-03-29T10:50:54;0.80;;;0.50;;
46675;SDS011;32412;51.478;5.694;2024-03-29T10:53:21;1.88;;;0.50;;
46675;SDS011;32412;51.478;5.694;2024-03-29T10:55:50;0.80;;;0.60;;
46675;SDS011;32412;51.478;5.694;2024-03-29T10:58:18;0.85;;;0.52;;
46675;SDS011;32412;51.478;5.694;2024-03-29T11:00:49;2.83;;;0.50;;
46675;SDS011;32412;51.478;5.694;2024-03-29T11:06:09;2.63;;;0.80;;
46675;SDS011;32412;51.478;5.694;2024-03-29T11:08:38;2.28;;;0.70;;
46675;SDS011;32412;51.478;5.694;2024-03-29T11:11:10;0.60;;;0.60;;
46675;SDS011;32412;51.478;5.694;2024-03-29T11:16:21;0.63;;;0.50;;
46675;SDS011;32412;51.478;5.694;2024-03-29T11:18:48;1.45;;;0.70;;
46675;SDS011;32412;51.478;5.694;2024-03-29T11:21:14;1.00;;;0.60;;
46675;SDS011;32412;51.478;5.694;2024-03-29T11:23:47;0.85;;;0.50;;
46675;SDS011;32412;51.478;5.694;2024-03-29T11:26:14;1.65;;;0.50;;
46675;SDS011;32412;51.478;5.694;2024-03-29T11:28:41;0.50;;;0.50;;
46675;SDS011;32412;51.478;5.694;2024-03-29T11:31:08;0.60;;;0.52;;
46675;SDS011;32412;51.478;5.694;2024-03-29T11:33:35;0.60;;;0.50;;
46675;SDS011;32412;51.478;5.694;2024-03-29T11:36:23;0.50;;;0.40;;
46675;SDS011;32412;51.478;5.694;2024-03-29T11:38:56;0.45;;;0.40;;
46675;SDS011;32412;51.478;5.694;2024-03-29T11:41:23;0.40;;;0.30;;
46675;SDS011;32412;51.478;5.694;2024-03-29T11:43:56;2.80;;;0.45;;
46675;SDS011;32412;51.478;5.694;2024-03-29T11:46:22;0.40;;;0.40;;
46675;SDS011;32412;51.478;5.694;2024-03-29T11:48:49;0.75;;;0.30;;
46675;SDS011;32412;51.478;5.694;2024-03-29T11:51:17;0.20;;;0.20;;
46675;SDS011;32412;51.478;5.694;2024-03-29T11:53:46;0.50;;;0.30;;
46675;SDS011;32412;51.478;5.694;2024-03-29T11:56:12;0.63;;;0.30;;
46675;SDS011;32412;51.478;5.694;2024-03-29T11:58:39;2.05;;;0.38;;
46675;SDS011;32412;51.478;5.694;2024-03-29T12:01:05;1.10;;;0.32;;
46675;SDS011;32412;51.478;5.694;2024-03-29T12:03:37;0.88;;;0.28;;
46675;SDS011;32412;51.478;5.694;2024-03-29T12:06:03;0.38;;;0.30;;
46675;SDS011;32412;51.478;5.694;2024-03-29T12:08:29;2.40;;;0.30;;
46675;SDS011;32412;51.478;5.694;2024-03-29T12:10:57;0.40;;;0.40;;
46675;SDS011;32412;51.478;5.694;2024-03-29T12:13:24;0.88;;;0.20;;
46675;SDS011;32412;51.478;5.694;2024-03-29T12:15:50;0.52;;;0.30;;
46675;SDS011;32412;51.478;5.694;2024-03-29T12:18:15;1.10;;;0.10;;
46675;SDS011;32412;51.478;5.694;2024-03-29T12:20:41;0.43;;;0.30;;
46675;SDS011;32412;51.478;5.694;2024-03-29T12:23:11;1.17;;;0.30;;
46675;SDS011;32412;51.478;5.694;2024-03-29T12:25:38;0.68;;;0.40;;
46675;SDS011;32412;51.478;5.694;2024-03-29T12:28:04;0.43;;;0.32;;
46675;SDS011;32412;51.478;5.694;2024-03-29T12:30:30;0.90;;;0.35;;
46675;SDS011;32412;51.478;5.694;2024-03-29T12:33:02;0.93;;;0.30;;
46675;SDS011;32412;51.478;5.694;2024-03-29T12:35:31;1.13;;;0.43;;
46675;SDS011;32412;51.478;5.694;2024-03-29T12:37:58;0.60;;;0.30;;
46675;SDS011;32412;51.478;5.694;2024-03-29T12:40:28;2.53;;;0.40;;
46675;SDS011;32412;51.478;5.694;2024-03-29T12:43:01;2.25;;;0.32;;
46675;SDS011;32412;51.478;5.694;2024-03-29T12:45:29;1.45;;;0.30;;
46675;SDS011;32412;51.478;5.694;2024-03-29T12:47:54;1.58;;;0.40;;
46675;SDS011;32412;51.478;5.694;2024-03-29T12:50:27;2.10;;;0.40;;
46675;SDS011;32412;51.478;5.694;2024-03-29T12:52:59;3.33;;;0.30;;
46675;SDS011;32412;51.478;5.694;2024-03-29T12:58:16;0.93;;;0.40;;
46675;SDS011;32412;51.478;5.694;2024-03-29T13:00:45;1.58;;;0.40;;
46675;SDS011;32412;51.478;5.694;2024-03-29T13:03:11;0.30;;;0.30;;
46675;SDS011;32412;51.478;5.694;2024-03-29T13:05:38;1.00;;;0.40;;
46675;SDS011;32412;51.478;5.694;2024-03-29T13:08:06;0.77;;;0.40;;
46675;SDS011;32412;51.478;5.694;2024-03-29T13:10:37;0.30;;;0.30;;
46675;SDS011;32412;51.478;5.694;2024-03-29T13:13:04;0.60;;;0.32;;
46675;SDS011;32412;51.478;5.694;2024-03-29T13:15:32;0.47;;;0.30;;
46675;SDS011;32412;51.478;5.694;2024-03-29T13:17:59;1.45;;;0.43;;
46675;SDS011;32412;51.478;5.694;2024-03-29T13:20:25;0.60;;;0.30;;
46675;SDS011;32412;51.478;5.694;2024-03-29T13:22:51;1.65;;;0.50;;
46675;SDS011;32412;51.478;5.694;2024-03-29T13:25:19;0.80;;;0.30;;
46675;SDS011;32412;51.478;5.694;2024-03-29T13:27:46;1.67;;;0.60;;
46675;SDS011;32412;51.478;5.694;2024-03-29T13:30:17;3.25;;;0.40;;
46675;SDS011;32412;51.478;5.694;2024-03-29T13:32:42;2.08;;;0.50;;
46675;SDS011;32412;51.478;5.694;2024-03-29T13:35:11;0.50;;;0.50;;
46675;SDS011;32412;51.478;5.694;2024-03-29T13:37:40;1.17;;;0.55;;
46675;SDS011;32412;51.478;5.694;2024-03-29T13:40:13;0.35;;;0.35;;
46675;SDS011;32412;51.478;5.694;2024-03-29T13:42:39;1.50;;;0.32;;
46675;SDS011;32412;51.478;5.694;2024-03-29T13:45:06;3.45;;;0.38;;
46675;SDS011;32412;51.478;5.694;2024-03-29T13:47:35;1.08;;;0.60;;
46675;SDS011;32412;51.478;5.694;2024-03-29T13:50:03;2.47;;;0.70;;
46675;SDS011;32412;51.478;5.694;2024-03-29T13:52:29;2.00;;;0.50;;
46675;SDS011;32412;51.478;5.694;2024-03-29T13:54:55;1.42;;;0.43;;
46675;SDS011;32412;51.478;5.694;2024-03-29T13:57:21;1.20;;;0.50;;
46675;SDS011;32412;51.478;5.694;2024-03-29T13:59:47;1.25;;;0.45;;
46675;SDS011;32412;51.478;5.694;2024-03-29T14:02:13;2.42;;;0.52;;
46675;SDS011;32412;51.478;5.694;2024-03-29T14:04:40;1.95;;;0.50;;
46675;SDS011;32412;51.478;5.694;2024-03-29T14:07:07;1.55;;;0.60;;
46675;SDS011;32412;51.478;5.694;2024-03-29T14:09:35;2.35;;;1.00;;
46675;SDS011;32412;51.478;5.694;2024-03-29T14:12:00;0.85;;;0.50;;
46675;SDS011;32412;51.478;5.694;2024-03-29T14:14:27;1.63;;;0.40;;
46675;SDS011;32412;51.478;5.694;2024-03-29T14:16:53;0.65;;;0.55;;
46675;SDS011;32412;51.478;5.694;2024-03-29T14:19:18;0.68;;;0.30;;
46675;SDS011;32412;51.478;5.694;2024-03-29T14:21:44;2.17;;;0.52;;
46675;SDS011;32412;51.478;5.694;2024-03-29T14:24:09;0.38;;;0.25;;
46675;SDS011;32412;51.478;5.694;2024-03-29T14:26:35;1.00;;;0.52;;
46675;SDS011;32412;51.478;5.694;2024-03-29T14:29:01;0.50;;;0.38;;
46675;SDS011;32412;51.478;5.694;2024-03-29T14:31:26;1.35;;;0.35;;
46675;SDS011;32412;51.478;5.694;2024-03-29T14:33:52;1.20;;;0.52;;
46675;SDS011;32412;51.478;5.694;2024-03-29T14:36:17;1.00;;;0.40;;
46675;SDS011;32412;51.478;5.694;2024-03-29T14:38:43;0.40;;;0.32;;
46675;SDS011;32412;51.478;5.694;2024-03-29T14:41:09;1.70;;;0.40;;
46675;SDS011;32412;51.478;5.694;2024-03-29T14:43:35;0.50;;;0.50;;
46675;SDS011;32412;51.478;5.694;2024-03-29T14:46:01;1.50;;;0.65;;
46675;SDS011;32412;51.478;5.694;2024-03-29T14:48:27;1.25;;;0.60;;
46675;SDS011;32412;51.478;5.694;2024-03-29T14:50:52;3.63;;;0.55;;
46675;SDS011;32412;51.478;5.694;2024-03-29T14:53:21;0.65;;;0.40;;